createdAt,value
2022-09-13T00:00:42.653Z,89025.94
2022-09-13T00:03:11.122Z,89032.34
2022-09-13T00:05:38.950Z,89029.06
2022-09-13T00:08:06.591Z,89024.34
2022-09-13T00:10:38.452Z,89034.91
2022-09-13T00:13:06.617Z,89033.97
2022-09-13T00:15:33.340Z,89030.06
2022-09-13T00:18:00.310Z,89037.59
2022-09-13T00:20:27.487Z,89035.09
2022-09-13T00:22:54.405Z,89033.31
2022-09-13T00:25:21.230Z,89034.78
2022-09-13T00:27:48.100Z,89028.13
2022-09-13T00:30:14.959Z,89029.19
2022-09-13T00:32:42.167Z,89030.78
2022-09-13T00:35:09.323Z,89025.72
2022-09-13T00:37:36.062Z,89027.06
2022-09-13T00:40:04.141Z,89033.50
2022-09-13T00:42:32.579Z,89025.56
2022-09-13T00:45:16.758Z,89020.81
2022-09-13T00:47:55.769Z,89015.75
2022-09-13T00:50:38.959Z,89013.41
2022-09-13T00:53:11.588Z,89014.31
2022-09-13T00:55:53.795Z,89023.28
2022-09-13T00:58:36.869Z,89017.41
2022-09-13T01:01:05.672Z,89017.19
2022-09-13T01:03:35.349Z,89013.72
2022-09-13T01:06:11.928Z,89011.53
2022-09-13T01:08:41.513Z,89005.66
2022-09-13T01:11:16.441Z,89008.53
2022-09-13T01:13:44.278Z,89002.97
2022-09-13T01:16:11.242Z,89003.47
2022-09-13T01:18:38.148Z,88996.44
2022-09-13T01:21:46.438Z,89010.22
2022-09-13T01:24:43.955Z,89005.16
2022-09-13T01:27:37.508Z,89004.53
2022-09-13T01:30:10.059Z,89000.19
2022-09-13T01:33:12.052Z,89005.75
2022-09-13T01:35:50.729Z,89007.22
2022-09-13T01:38:38.525Z,89007.00
2022-09-13T01:41:30.117Z,89012.50
2022-09-13T01:44:30.910Z,89010.84
2022-09-13T01:47:16.940Z,89007.25
2022-09-13T01:49:48.068Z,89010.25
2022-09-13T01:52:43.014Z,88997.63
2022-09-13T01:55:25.705Z,89006.22
2022-09-13T01:58:18.487Z,89005.09
2022-09-13T02:00:51.799Z,89003.25
2022-09-13T02:03:31.503Z,88997.16
2022-09-13T02:06:21.456Z,89004.38
2022-09-13T02:08:54.950Z,89000.31
2022-09-13T02:11:22.814Z,89006.84
2022-09-13T02:13:56.086Z,88996.59
2022-09-13T02:16:36.147Z,88994.66
2022-09-13T02:19:11.573Z,88990.72
2022-09-13T02:21:41.816Z,88988.03
2022-09-13T02:24:23.237Z,88986.38
2022-09-13T02:26:54.175Z,88984.63
2022-09-13T02:29:24.762Z,88982.91
2022-09-13T02:32:07.647Z,88992.09
2022-09-13T02:34:40.728Z,88990.03
2022-09-13T02:37:09.520Z,88989.31
2022-09-13T02:39:41.763Z,88977.66
2022-09-13T02:42:18.172Z,88980.63
2022-09-13T02:44:56.116Z,88990.88
2022-09-13T02:47:42.131Z,88979.19
2022-09-13T02:50:33.835Z,88987.25
2022-09-13T02:53:57.675Z,88988.28
2022-09-13T02:56:29.889Z,88988.25
2022-09-13T02:59:05.639Z,88982.97
2022-09-13T03:01:35.368Z,88989.47
2022-09-13T03:04:02.655Z,88980.41
2022-09-13T03:06:30.039Z,88988.78
2022-09-13T03:09:03.378Z,88985.38
2022-09-13T03:11:57.208Z,88994.19
2022-09-13T03:15:01.549Z,88984.56
2022-09-13T03:17:53.217Z,88986.94
2022-09-13T03:20:36.188Z,88992.41
2022-09-13T03:23:05.813Z,88998.22
2022-09-13T03:26:03.329Z,88991.63
2022-09-13T03:29:07.867Z,88996.34
2022-09-13T03:31:43.903Z,88989.50
2022-09-13T03:34:33.761Z,88996.13
2022-09-13T03:37:14.594Z,88996.19
2022-09-13T03:39:56.354Z,88993.31
2022-09-13T03:42:34.995Z,88998.66
2022-09-13T03:45:05.067Z,88990.75
2022-09-13T03:47:35.559Z,88999.03
2022-09-13T03:50:03.933Z,88998.53
2022-09-13T03:52:31.030Z,88997.88
2022-09-13T03:54:58.642Z,89000.78
2022-09-13T03:57:25.469Z,88993.84
2022-09-13T03:59:54.794Z,88989.81
2022-09-13T04:02:24.361Z,88992.06
2022-09-13T04:04:51.357Z,88991.91
2022-09-13T04:07:23.884Z,88980.75
2022-09-13T04:09:50.879Z,88988.06
2022-09-13T04:12:18.414Z,88994.19
2022-09-13T04:14:45.357Z,88992.75
2022-09-13T04:17:13.335Z,88995.19
2022-09-13T04:19:41.033Z,88991.66
2022-09-13T04:22:08.252Z,88994.69
2022-09-13T04:24:35.378Z,88994.50
2022-09-13T04:27:02.690Z,88993.13
2022-09-13T04:29:29.540Z,88990.84
2022-09-13T04:31:56.495Z,88994.34
2022-09-13T04:34:23.948Z,88994.31
2022-09-13T04:36:52.772Z,88999.50
2022-09-13T04:39:20.766Z,89011.50
2022-09-13T04:41:48.632Z,89009.03
2022-09-13T04:44:17.346Z,89000.38
2022-09-13T04:46:47.735Z,89011.59
2022-09-13T04:49:15.960Z,89008.22
2022-09-13T04:51:42.977Z,89003.69
2022-09-13T04:54:15.214Z,89007.50
2022-09-13T04:56:43.424Z,89004.44
2022-09-13T04:59:12.195Z,89006.13
2022-09-13T05:01:39.223Z,89005.69
2022-09-13T05:04:07.050Z,89015.28
2022-09-13T05:06:34.514Z,89013.03
2022-09-13T05:09:01.649Z,89017.25
2022-09-13T05:11:29.469Z,89015.38
2022-09-13T05:13:59.030Z,89016.72
2022-09-13T05:16:31.329Z,89025.59
2022-09-13T05:18:58.547Z,89021.19
2022-09-13T05:21:25.857Z,89019.84
2022-09-13T05:23:53.760Z,89015.03
2022-09-13T05:26:22.813Z,89016.78
2022-09-13T05:28:50.142Z,89019.91
2022-09-13T05:31:22.112Z,89015.81
2022-09-13T05:33:55.042Z,89022.16
2022-09-13T05:36:22.423Z,89017.09
2022-09-13T05:38:55.008Z,89030.91
2022-09-13T05:41:28.756Z,89020.63
2022-09-13T05:43:58.603Z,89014.44
2022-09-13T05:46:29.114Z,89017.16
2022-09-13T05:48:59.049Z,89020.72
2022-09-13T05:51:26.781Z,89016.69
2022-09-13T05:53:54.742Z,89020.84
2022-09-13T05:56:23.713Z,89020.16
2022-09-13T05:58:52.478Z,89020.59
2022-09-13T06:01:21.971Z,89018.47
2022-09-13T06:03:50.397Z,89014.31
2022-09-13T06:06:19.824Z,89019.72
2022-09-13T06:08:47.742Z,89025.75
2022-09-13T06:11:15.761Z,89029.03
2022-09-13T06:13:42.643Z,89026.91
2022-09-13T06:16:12.840Z,89031.38
2022-09-13T06:18:40.472Z,89035.09
2022-09-13T06:21:10.096Z,89036.22
2022-09-13T06:23:37.131Z,89038.78
2022-09-13T06:26:09.738Z,89038.16
2022-09-13T06:28:37.777Z,89042.16
2022-09-13T06:31:13.740Z,89043.69
2022-09-13T06:33:42.532Z,89039.00
2022-09-13T06:36:15.159Z,89042.22
2022-09-13T06:38:42.496Z,89044.19
2022-09-13T06:41:12.313Z,89040.97
2022-09-13T06:43:40.247Z,89042.41
2022-09-13T06:46:10.472Z,89043.25
2022-09-13T06:48:40.134Z,89041.34
2022-09-13T06:51:11.671Z,89046.66
2022-09-13T06:53:38.968Z,89036.38
2022-09-13T06:56:12.709Z,89045.69
2022-09-13T06:58:41.239Z,89042.50
2022-09-13T07:01:17.381Z,89041.06
2022-09-13T07:03:49.496Z,89036.81
2022-09-13T07:06:22.446Z,89031.22
2022-09-13T07:08:51.969Z,89040.50
2022-09-13T07:11:21.194Z,89037.53
2022-09-13T07:13:52.238Z,89040.97
2022-09-13T07:16:21.799Z,89045.59
2022-09-13T07:18:57.415Z,89042.03
2022-09-13T07:21:25.528Z,89045.97
2022-09-13T07:23:54.095Z,89043.69
2022-09-13T07:26:21.440Z,89047.25
2022-09-13T07:28:52.295Z,89051.53
2022-09-13T07:31:24.585Z,89049.25
2022-09-13T07:33:57.175Z,89037.91
2022-09-13T07:36:24.709Z,89044.56
2022-09-13T07:38:52.283Z,89035.44
2022-09-13T07:41:21.731Z,89042.94
2022-09-13T07:43:49.554Z,89039.22
2022-09-13T07:46:21.955Z,89037.41
2022-09-13T07:48:49.721Z,89029.28
2022-09-13T07:51:23.099Z,89029.91
2022-09-13T07:53:56.507Z,89027.53
2022-09-13T07:56:27.833Z,89024.50
2022-09-13T08:12:18.030Z,89018.50
2022-09-13T08:14:44.778Z,89012.41
2022-09-13T08:17:11.646Z,89012.41
2022-09-13T08:19:38.505Z,89001.03
2022-09-13T08:22:05.269Z,89006.16
2022-09-13T08:24:32.026Z,89003.59
2022-09-13T08:26:59.197Z,89021.75
2022-09-13T08:29:26.173Z,89011.38
2022-09-13T08:31:52.896Z,89004.50
2022-09-13T08:34:19.858Z,89001.09
2022-09-13T08:36:46.634Z,88995.91
2022-09-13T08:39:14.128Z,88992.09
2022-09-13T08:41:41.367Z,88992.00
2022-09-13T08:44:59.116Z,89007.66
2022-09-13T08:47:39.118Z,88996.84
2022-09-13T08:50:12.114Z,88989.34
2022-09-13T08:52:48.841Z,88987.03
2022-09-13T08:55:57.238Z,88984.19
2022-09-13T08:59:01.469Z,88984.41
2022-09-13T09:01:42.602Z,88972.09
2022-09-13T09:04:36.168Z,88975.97
2022-09-13T09:07:08.686Z,88975.63
2022-09-13T09:09:51.564Z,88969.50
2022-09-13T09:12:36.912Z,88968.97
2022-09-13T09:15:09.878Z,88971.47
2022-09-13T09:18:04.621Z,88971.38
2022-09-13T09:20:37.300Z,88979.63
2022-09-13T09:23:19.069Z,88952.59
2022-09-13T09:25:51.877Z,88973.63
2022-09-13T09:28:19.772Z,88972.00
2022-09-13T09:30:51.858Z,88975.34
2022-09-13T09:33:40.194Z,88972.69
2022-09-13T09:36:18.598Z,88974.63
2022-09-13T09:38:45.515Z,88974.16
2022-09-13T09:41:33.691Z,88974.44
2022-09-13T09:44:14.576Z,88973.28
2022-09-13T09:46:43.281Z,88966.72
2022-09-13T09:49:26.913Z,88970.69
2022-09-13T09:52:15.336Z,88963.16
2022-09-13T09:54:42.183Z,88968.06
2022-09-13T09:57:08.971Z,88976.53
2022-09-13T09:59:36.123Z,88975.91
2022-09-13T10:02:17.815Z,88980.44
2022-09-13T10:04:59.060Z,88983.94
2022-09-13T10:07:33.398Z,88983.03
2022-09-13T10:10:08.496Z,88980.53
2022-09-13T10:12:40.108Z,88979.59
2022-09-13T10:15:17.593Z,88975.28
2022-09-13T10:18:00.865Z,88977.47
2022-09-13T10:20:27.800Z,88977.72
2022-09-13T10:23:14.747Z,88979.53
2022-09-13T10:25:47.853Z,88980.34
2022-09-13T10:28:19.781Z,88970.38
2022-09-13T10:30:48.880Z,88974.00
2022-09-13T10:33:32.543Z,88965.06
2022-09-13T10:36:48.296Z,88969.56
2022-09-13T10:39:19.204Z,88963.38
2022-09-13T10:42:03.084Z,88972.78
2022-09-13T10:44:41.296Z,88965.41
2022-09-13T10:47:18.506Z,88963.50
2022-09-13T10:49:48.602Z,88970.97
2022-09-13T10:52:31.294Z,88960.84
2022-09-13T10:55:16.652Z,88952.09
2022-09-13T10:57:43.875Z,88968.94
2022-09-13T11:00:13.554Z,88963.03
2022-09-13T11:02:58.188Z,88967.97
2022-09-13T11:06:00.739Z,88963.13
2022-09-13T11:08:49.010Z,88957.78
2022-09-13T11:11:27.847Z,88964.06
2022-09-13T11:14:26.137Z,88959.44
2022-09-13T11:16:55.660Z,88959.00
2022-09-13T11:19:31.362Z,88953.72
2022-09-13T11:22:31.720Z,88958.88
2022-09-13T11:25:17.996Z,88947.44
2022-09-13T11:27:49.735Z,88949.09
2022-09-13T11:30:27.790Z,88947.78
2022-09-13T11:33:38.412Z,88937.41
2022-09-13T11:36:18.423Z,88936.06
2022-09-13T11:38:58.470Z,88936.00
2022-09-13T11:41:38.547Z,88937.09
2022-09-13T11:44:35.910Z,88936.63
2022-09-13T11:47:11.583Z,88928.69
2022-09-13T11:50:02.101Z,88930.25
2022-09-13T11:52:47.247Z,88928.44
2022-09-13T11:55:21.698Z,88931.34
2022-09-13T11:58:01.586Z,88924.94
2022-09-13T12:00:40.217Z,88912.00
2022-09-13T12:03:36.624Z,88913.88
2022-09-13T12:06:07.229Z,88923.13
2022-09-13T12:08:42.487Z,88926.69
2022-09-13T12:11:16.306Z,88918.03
2022-09-13T12:13:54.585Z,88916.88
2022-09-13T12:16:42.726Z,88921.84
2022-09-13T12:19:42.312Z,88925.00
2022-09-13T12:22:11.316Z,88923.38
2022-09-13T12:24:49.013Z,88919.56
2022-09-13T12:27:40.602Z,88919.19
2022-09-13T12:30:20.666Z,88916.91
2022-09-13T12:32:49.025Z,88925.47
2022-09-13T12:35:50.856Z,88919.00
2022-09-13T12:38:39.161Z,88909.81
2022-09-13T12:41:23.627Z,88912.31
2022-09-13T12:44:15.741Z,88914.25
2022-09-13T12:47:04.178Z,88920.03
2022-09-13T12:50:42.748Z,88920.47
2022-09-13T12:53:13.110Z,88901.44
2022-09-13T12:56:17.647Z,88907.63
2022-09-13T12:59:18.154Z,88907.91
2022-09-13T13:01:48.895Z,88902.78
2022-09-13T13:04:30.896Z,88899.97
2022-09-13T13:07:02.091Z,88910.34
2022-09-13T13:09:44.042Z,88907.81
2022-09-13T13:12:12.554Z,88910.53
2022-09-13T13:14:39.330Z,88901.19
2022-09-13T13:17:41.755Z,88902.09
2022-09-13T13:20:45.679Z,88904.09
2022-09-13T13:23:28.906Z,88915.00
2022-09-13T13:26:04.802Z,88911.00
2022-09-13T13:28:43.958Z,88913.00
2022-09-13T13:31:29.205Z,88915.72
2022-09-13T13:34:04.194Z,88907.22
2022-09-13T13:36:56.005Z,88909.84
2022-09-13T13:39:25.845Z,88910.88
2022-09-13T13:42:22.830Z,88909.69
2022-09-13T13:44:52.804Z,88915.63
2022-09-13T13:47:19.533Z,88908.16
2022-09-13T13:50:09.777Z,88912.03
2022-09-13T13:52:52.584Z,88914.50
2022-09-13T13:55:43.622Z,88908.19
2022-09-13T13:58:19.634Z,88914.41
2022-09-13T14:00:50.268Z,88910.25
2022-09-13T14:03:41.957Z,88914.13
2022-09-13T14:06:49.300Z,88912.41
2022-09-13T14:09:22.743Z,88914.28
2022-09-13T14:12:06.300Z,88912.03
2022-09-13T14:14:33.017Z,88906.00
2022-09-13T14:17:21.667Z,88912.88
2022-09-13T14:19:52.325Z,88913.03
2022-09-13T14:22:20.740Z,88921.81
2022-09-13T14:24:49.501Z,88923.53
2022-09-13T14:27:34.241Z,88923.53
2022-09-13T14:30:05.346Z,88918.38
2022-09-13T14:32:47.010Z,88918.81
2022-09-13T14:35:41.510Z,88923.97
2022-09-13T14:38:18.813Z,88928.53
2022-09-13T14:40:50.850Z,88935.41
2022-09-13T14:43:23.646Z,88942.72
2022-09-13T14:46:13.765Z,88944.03
2022-09-13T14:49:00.888Z,88941.59
2022-09-13T14:51:32.899Z,88930.56
2022-09-13T14:54:23.423Z,88938.00
2022-09-13T14:57:01.512Z,88939.13
2022-09-13T14:59:57.579Z,88936.69
2022-09-13T15:02:27.638Z,88942.31
2022-09-13T15:05:00.589Z,88940.44
2022-09-13T15:07:33.517Z,88941.31
2022-09-13T15:10:18.593Z,88935.84
2022-09-13T15:13:03.471Z,88939.69
2022-09-13T15:15:36.829Z,88938.41
2022-09-13T15:18:18.631Z,88946.47
2022-09-13T15:20:54.859Z,88953.06
2022-09-13T15:23:43.350Z,88957.22
2022-09-13T15:26:26.395Z,88950.91
2022-09-13T15:28:58.695Z,88953.03
2022-09-13T15:31:30.961Z,88947.53
2022-09-13T15:34:19.368Z,88956.97
2022-09-13T15:36:47.966Z,88967.66
2022-09-13T15:39:21.946Z,88968.84
2022-09-13T15:41:56.807Z,88968.72
2022-09-13T15:45:04.068Z,88975.03
2022-09-13T15:47:30.924Z,88977.81
2022-09-13T15:49:57.684Z,88979.19
2022-09-13T15:52:24.510Z,88975.97
2022-09-13T15:54:51.471Z,88977.16
2022-09-13T15:57:28.587Z,88979.41
2022-09-13T15:59:56.391Z,88988.34
2022-09-13T16:02:32.663Z,88988.69
2022-09-13T16:04:59.612Z,88992.97
2022-09-13T16:07:26.875Z,88996.88
2022-09-13T16:09:54.261Z,88996.22
2022-09-13T16:12:21.132Z,89007.13
2022-09-13T16:14:47.921Z,89004.69
2022-09-13T16:17:23.952Z,89011.28
2022-09-13T16:19:50.920Z,89008.94
2022-09-13T16:22:17.980Z,89021.84
2022-09-13T16:24:44.929Z,89017.19
2022-09-13T16:27:16.923Z,89025.19
2022-09-13T16:29:44.077Z,89026.34
2022-09-13T16:32:11.576Z,89029.66
2022-09-13T16:34:38.709Z,89031.16
2022-09-13T16:37:05.894Z,89043.16
2022-09-13T16:39:32.842Z,89039.63
2022-09-13T16:41:59.786Z,89047.97
2022-09-13T16:44:26.544Z,89052.13
2022-09-13T16:46:53.541Z,89067.66
2022-09-13T16:49:20.342Z,89070.00
2022-09-13T16:51:47.168Z,89073.59
2022-09-13T16:54:14.182Z,89080.81
2022-09-13T16:56:40.943Z,89085.69
2022-09-13T16:59:07.778Z,89097.34
2022-09-13T17:01:36.059Z,89109.72
2022-09-13T17:04:03.342Z,89105.56
2022-09-13T17:06:30.487Z,89100.53
2022-09-13T17:09:01.199Z,89113.47
2022-09-13T17:11:30.671Z,89116.31
2022-09-13T17:15:41.977Z,89117.72
2022-09-13T17:18:09.370Z,89133.56
2022-09-13T17:20:36.936Z,89137.13
2022-09-13T17:23:03.888Z,89142.69
2022-09-13T17:25:31.210Z,89144.28
2022-09-13T17:27:57.976Z,89153.28
2022-09-13T17:30:25.297Z,89155.56
2022-09-13T17:32:52.242Z,89160.06
2022-09-13T17:35:19.227Z,89171.22
2022-09-13T17:37:46.049Z,89175.16
2022-09-13T17:40:13.049Z,89173.50
2022-09-13T17:42:39.863Z,89181.22
2022-09-13T17:45:06.983Z,89185.19
2022-09-13T17:47:33.791Z,89184.06
2022-09-13T17:50:00.566Z,89185.84
2022-09-13T17:52:29.648Z,89193.75
2022-09-13T17:54:59.660Z,89203.09
2022-09-13T17:57:26.508Z,89207.03
2022-09-13T17:59:53.576Z,89203.94
2022-09-13T18:02:21.137Z,89206.22
2022-09-13T18:04:49.771Z,89215.19
2022-09-13T18:07:17.462Z,89212.31
2022-09-13T18:09:44.682Z,89210.88
2022-09-13T18:12:12.588Z,89225.56
2022-09-13T18:14:39.505Z,89214.78
2022-09-13T18:17:06.689Z,89217.28
2022-09-13T18:19:45.827Z,89214.41
2022-09-13T18:22:13.721Z,89215.84
2022-09-13T18:24:40.706Z,89215.66
2022-09-13T18:27:07.623Z,89226.63
2022-09-13T18:29:34.697Z,89225.19
2022-09-13T18:32:01.662Z,89229.16
2022-09-13T18:34:28.451Z,89230.94
2022-09-13T18:36:56.494Z,89235.19
2022-09-13T18:39:23.509Z,89250.25
2022-09-13T18:41:50.763Z,89236.91
2022-09-13T18:44:18.432Z,89231.31
2022-09-13T18:46:45.433Z,89235.28
2022-09-13T18:49:12.355Z,89239.94
2022-09-13T18:51:42.049Z,89243.13
2022-09-13T18:54:13.039Z,89237.56
2022-09-13T18:56:39.870Z,89241.69
2022-09-13T18:59:07.839Z,89238.28
2022-09-13T19:01:37.568Z,89238.09
2022-09-13T19:04:16.638Z,89242.56
2022-09-13T19:06:46.052Z,89251.47
2022-09-13T19:09:13.628Z,89243.94
2022-09-13T19:11:47.669Z,89251.09
2022-09-13T19:14:26.314Z,89251.09
2022-09-13T19:16:55.144Z,89253.56
2022-09-13T19:19:22.689Z,89258.75
2022-09-13T19:21:49.735Z,89256.06
2022-09-13T19:24:18.836Z,89260.34
2022-09-13T19:26:47.919Z,89255.97
2022-09-13T19:29:17.944Z,89262.22
2022-09-13T19:31:46.649Z,89264.00
2022-09-13T19:34:13.470Z,89262.88
2022-09-13T19:36:41.062Z,89276.66
2022-09-13T19:39:08.066Z,89284.13
2022-09-13T19:41:37.118Z,89277.59
2022-09-13T19:44:04.822Z,89280.41
2022-09-13T19:46:35.546Z,89283.09
2022-09-13T19:49:02.621Z,89286.63
2022-09-13T19:51:34.702Z,89291.69
2022-09-13T19:54:02.223Z,89299.28
2022-09-13T19:56:32.369Z,89292.69
2022-09-13T19:59:00.949Z,89296.09
2022-09-13T20:01:30.959Z,89308.16
2022-09-13T20:04:00.423Z,89300.94
2022-09-13T20:06:29.353Z,89299.81
2022-09-13T20:09:01.254Z,89300.59
2022-09-13T20:11:28.292Z,89305.22
2022-09-13T20:13:56.683Z,89315.72
2022-09-13T20:16:26.414Z,89311.28
2022-09-13T20:18:54.723Z,89308.09
2022-09-13T20:21:21.731Z,89306.16
2022-09-13T20:23:48.533Z,89307.47
2022-09-13T20:26:16.824Z,89319.03
2022-09-13T20:28:44.465Z,89321.56
2022-09-13T20:31:11.910Z,89322.88
2022-09-13T20:33:39.380Z,89326.69
2022-09-13T20:36:08.276Z,89327.03
2022-09-13T20:38:35.361Z,89324.00
2022-09-13T20:41:04.046Z,89328.53
2022-09-13T20:43:31.039Z,89328.91
2022-09-13T20:45:57.991Z,89327.09
2022-09-13T20:48:25.377Z,89334.31
2022-09-13T20:51:00.397Z,89327.66
2022-09-13T20:53:28.622Z,89329.31
2022-09-13T20:55:56.031Z,89333.63
2022-09-13T20:58:23.377Z,89335.06
2022-09-13T21:00:50.194Z,89335.28
2022-09-13T21:03:17.044Z,89327.34
2022-09-13T21:05:43.975Z,89337.09
2022-09-13T21:08:17.328Z,89336.56
2022-09-13T21:10:44.316Z,89350.28
2022-09-13T21:13:11.428Z,89347.78
2022-09-13T21:15:38.195Z,89347.22
2022-09-13T21:18:05.013Z,89345.25
2022-09-13T21:20:31.908Z,89347.41
2022-09-13T21:22:58.797Z,89350.31
2022-09-13T21:25:25.592Z,89351.56
2022-09-13T21:27:52.433Z,89352.47
2022-09-13T21:30:19.397Z,89349.25
2022-09-13T21:32:46.174Z,89353.22
2022-09-13T21:35:13.344Z,89349.25
2022-09-13T21:37:40.268Z,89347.44
2022-09-13T21:40:07.797Z,89346.91
2022-09-13T21:42:39.546Z,89355.72
2022-09-13T21:45:07.331Z,89355.00
2022-09-13T21:47:34.246Z,89355.00
2022-09-13T21:50:01.282Z,89355.19
2022-09-13T21:52:28.202Z,89351.03
2022-09-13T21:54:55.116Z,89357.19
2022-09-13T21:57:22.245Z,89356.47
2022-09-13T21:59:51.571Z,89357.91
2022-09-13T22:02:19.509Z,89362.59
2022-09-13T22:04:46.630Z,89370.00
2022-09-13T22:07:13.537Z,89374.84
2022-09-13T22:09:40.447Z,89371.97
2022-09-13T22:12:07.652Z,89377.56
2022-09-13T22:14:34.735Z,89395.06
2022-09-13T22:17:01.689Z,89383.53
2022-09-13T22:19:29.415Z,89383.53
2022-09-13T22:22:00.007Z,89376.13
2022-09-13T22:24:29.762Z,89375.41
2022-09-13T22:26:58.079Z,89372.69
2022-09-13T22:29:25.807Z,89374.13
2022-09-13T22:31:52.995Z,89369.25
2022-09-13T22:34:23.255Z,89373.97
2022-09-13T22:36:50.548Z,89375.41
2022-09-13T22:39:18.144Z,89375.94
2022-09-13T22:41:45.424Z,89381.53
2022-09-13T22:44:12.839Z,89372.69
2022-09-13T22:46:44.895Z,89374.84
2022-09-13T22:49:16.795Z,89368.53
2022-09-13T22:51:44.647Z,89361.16
2022-09-13T22:54:13.077Z,89357.53
2022-09-13T22:56:40.131Z,89368.72
2022-09-13T22:59:08.543Z,89368.53
2022-09-13T23:01:35.954Z,89366.38
2022-09-13T23:04:03.926Z,89362.94
2022-09-13T23:06:31.506Z,89367.28
2022-09-13T23:09:01.108Z,89364.56
2022-09-13T23:11:38.417Z,89374.13
2022-09-13T23:14:08.713Z,89368.00
2022-09-13T23:16:39.049Z,89374.84
2022-09-13T23:19:06.328Z,89378.28
2022-09-13T23:21:36.523Z,89387.88
2022-09-13T23:24:05.914Z,89385.16
2022-09-13T23:26:32.726Z,89381.75
2022-09-13T23:29:02.032Z,89379.75
2022-09-13T23:31:34.910Z,89382.47
2022-09-13T23:34:06.125Z,89385.88
2022-09-13T23:36:37.374Z,89383.69
2022-09-13T23:39:06.627Z,89383.69
2022-09-13T23:41:33.668Z,89381.75
2022-09-13T23:44:01.765Z,89385.69
2022-09-13T23:46:29.008Z,89395.78
2022-09-13T23:48:55.862Z,89388.94
2022-09-13T23:51:24.709Z,89395.06
2022-09-13T23:53:53.707Z,89392.91
2022-09-13T23:56:20.483Z,89399.75
2022-09-13T23:58:47.326Z,89399.75
